Time;durP1;ratioP1;P1;durP2;ratioP2;P2;SDS_P1;SDS_P2;PMS_P1;PMS_P2;Temp;Humidity;BMP_temperature;BMP_pressure;BME280_temperature;BME280_humidity;BME280_pressure;Samples;Min_cycle;Max_cycle;Signal;HPM_P1;HPM_P2
2021/04/29 00:01:22;;;;;;;26.60;15.90;;;9.50;99.90;;;;;;5055478;28;20211;-85
2021/04/29 00:03:48;;;;;;;23.90;15.57;;;9.60;99.90;;;;;;5061744;28;20198;-84
2021/04/29 00:06:16;;;;;;;28.37;16.10;;;9.60;99.90;;;;;;5060312;28;20305;-84
2021/04/29 00:08:46;;;;;;;28.23;16.30;;;9.50;99.90;;;;;;5052435;28;20261;-84
2021/04/29 00:11:12;;;;;;;27.93;16.00;;;9.50;99.90;;;;;;5053541;28;20237;-84
2021/04/29 00:13:39;;;;;;;26.03;16.57;;;9.50;99.90;;;;;;5057125;28;20246;-84
2021/04/29 00:16:09;;;;;;;28.77;17.13;;;9.50;99.90;;;;;;5059606;28;20249;-84
2021/04/29 00:18:36;;;;;;;28.77;16.90;;;9.50;99.90;;;;;;5057582;28;20587;-84
2021/04/29 00:21:02;;;;;;;27.67;16.10;;;9.60;99.90;;;;;;5054869;28;20199;-84
2021/04/29 00:23:30;;;;;;;28.90;17.37;;;9.60;99.90;;;;;;5054922;28;20199;-83
2021/04/29 00:25:57;;;;;;;26.77;16.37;;;9.60;99.90;;;;;;5059334;28;20272;-82
2021/04/29 00:28:26;;;;;;;30.23;17.83;;;9.60;99.90;;;;;;5058495;28;20280;-84
2021/04/29 00:30:52;;;;;;;26.60;17.10;;;9.60;99.90;;;;;;5057829;28;20199;-84
2021/04/29 00:33:19;;;;;;;29.73;18.07;;;9.60;99.90;;;;;;5054810;28;20222;-83
2021/04/29 00:35:45;;;;;;;31.10;17.20;;;9.60;99.90;;;;;;5056968;28;20222;-83
2021/04/29 00:38:12;;;;;;;31.43;18.73;;;9.60;99.90;;;;;;5061848;28;20254;-83
2021/04/29 00:40:41;;;;;;;24.53;15.73;;;9.70;99.90;;;;;;5069332;28;20216;-83
2021/04/29 00:43:10;;;;;;;27.73;16.63;;;9.80;99.90;;;;;;5077187;28;20270;-84
2021/04/29 00:45:37;;;;;;;27.13;16.63;;;9.80;99.90;;;;;;5078274;28;20271;-83
2021/04/29 00:48:06;;;;;;;26.03;16.20;;;9.80;99.90;;;;;;5072952;28;20218;-84
2021/04/29 00:50:33;;;;;;;25.73;15.93;;;9.80;99.90;;;;;;5064972;28;20211;-84
2021/04/29 00:53:00;;;;;;;30.60;17.03;;;9.90;99.90;;;;;;5063045;28;20210;-84
2021/04/29 00:55:27;;;;;;;26.43;17.30;;;9.90;99.90;;;;;;5062755;28;20221;-84
2021/04/29 00:57:54;;;;;;;29.63;17.50;;;9.90;99.90;;;;;;5063789;28;20237;-84
2021/04/29 01:00:21;;;;;;;29.57;17.63;;;9.90;99.90;;;;;;5063257;28;20769;-85
2021/04/29 01:02:55;;;;;;;28.97;18.20;;;9.90;99.90;;;;;;5061476;28;20195;-85
2021/04/29 01:05:24;;;;;;;35.80;18.80;;;10.00;99.90;;;;;;5061389;28;20336;-85
2021/04/29 01:07:54;;;;;;;34.07;19.53;;;10.00;99.90;;;;;;5062414;28;20203;-84
2021/04/29 01:10:26;;;;;;;34.60;18.57;;;9.90;99.90;;;;;;5062984;28;20194;-84
2021/04/29 01:13:04;;;;;;;31.23;18.33;;;9.90;99.90;;;;;;5059949;28;20202;-83
2021/04/29 01:15:31;;;;;;;27.77;17.07;;;9.90;99.90;;;;;;5060061;28;20222;-84
2021/04/29 01:17:58;;;;;;;25.80;17.10;;;9.90;99.90;;;;;;5057734;28;20242;-84
2021/04/29 01:20:33;;;;;;;28.70;18.00;;;9.80;99.90;;;;;;5060689;28;20210;-85
2021/04/29 01:23:12;;;;;;;30.20;18.00;;;9.80;99.90;;;;;;5056791;28;20210;-84
2021/04/29 01:25:42;;;;;;;27.07;17.83;;;9.70;99.90;;;;;;5063284;28;20567;-84
2021/04/29 01:28:10;;;;;;;29.30;17.87;;;9.70;99.90;;;;;;5064845;28;20194;-84
2021/04/29 01:30:38;;;;;;;31.67;17.20;;;9.70;99.90;;;;;;5063578;28;20202;-85
2021/04/29 01:33:05;;;;;;;29.03;17.60;;;9.60;99.90;;;;;;5062417;28;20210;-85
2021/04/29 01:35:32;;;;;;;29.33;17.87;;;9.60;99.90;;;;;;5065328;28;20226;-84
2021/04/29 01:38:00;;;;;;;34.30;19.67;;;9.50;99.90;;;;;;5058748;28;20226;-84
2021/04/29 01:40:26;;;;;;;30.63;17.87;;;9.50;99.90;;;;;;5062123;28;20231;-84
2021/04/29 01:42:53;;;;;;;31.20;18.67;;;9.40;99.90;;;;;;5061101;28;20234;-84
2021/04/29 01:45:21;;;;;;;33.07;18.07;;;9.30;99.90;;;;;;5064789;28;20223;-85
2021/04/29 01:47:47;;;;;;;30.40;17.43;;;9.30;99.90;;;;;;5064044;28;20206;-85
2021/04/29 01:50:14;;;;;;;31.80;17.87;;;9.30;99.90;;;;;;5063937;28;20218;-85
2021/04/29 01:52:41;;;;;;;33.90;19.17;;;9.30;99.90;;;;;;5060119;28;20195;-84
2021/04/29 01:55:09;;;;;;;29.07;17.20;;;9.30;99.90;;;;;;5059788;28;20231;-85
2021/04/29 01:57:36;;;;;;;28.93;16.87;;;9.30;99.90;;;;;;5058265;28;20249;-85
2021/04/29 02:00:06;;;;;;;29.00;16.93;;;9.30;99.90;;;;;;5058725;28;20682;-85
2021/04/29 02:02:34;;;;;;;29.60;17.00;;;9.30;99.90;;;;;;5060875;28;20225;-85
2021/04/29 02:05:00;;;;;;;29.57;17.23;;;9.30;99.90;;;;;;5060012;28;20305;-85
2021/04/29 02:07:27;;;;;;;30.23;18.73;;;9.30;99.90;;;;;;5060151;28;20305;-85
2021/04/29 02:09:55;;;;;;;38.83;19.67;;;9.30;99.90;;;;;;5058434;28;20210;-84
2021/04/29 02:12:24;;;;;;;36.07;18.67;;;9.30;99.90;;;;;;5058191;28;20263;-85
2021/04/29 02:14:54;;;;;;;30.73;17.93;;;9.30;99.90;;;;;;5051716;28;20494;-85
2021/04/29 02:17:28;;;;;;;27.07;15.17;;;9.30;99.90;;;;;;5051854;28;20233;-84
2021/04/29 02:19:56;;;;;;;25.47;15.53;;;9.30;99.90;;;;;;5058816;28;20209;-84
2021/04/29 02:22:26;;;;;;;28.53;15.17;;;9.20;99.90;;;;;;5076252;28;20203;-83
2021/04/29 02:24:54;;;;;;;31.57;17.13;;;9.20;99.90;;;;;;5081846;28;20179;-84
2021/04/29 02:27:21;;;;;;;27.60;15.83;;;9.10;99.90;;;;;;5081601;28;20199;-84
2021/04/29 02:29:50;;;;;;;25.57;15.50;;;9.10;99.90;;;;;;5065562;28;20656;-84
2021/04/29 02:32:17;;;;;;;26.50;15.63;;;9.10;99.90;;;;;;5066082;28;20202;-84
2021/04/29 02:34:45;;;;;;;25.80;15.07;;;9.10;99.90;;;;;;5060056;28;20206;-84
2021/04/29 02:37:13;;;;;;;24.40;14.00;;;9.10;99.90;;;;;;5060192;28;20222;-85
2021/04/29 02:39:41;;;;;;;23.53;14.47;;;9.00;99.90;;;;;;5058946;28;20225;-84
2021/04/29 02:42:08;;;;;;;24.00;13.80;;;9.00;99.90;;;;;;5058995;28;20277;-85
2021/04/29 02:44:35;;;;;;;24.47;13.33;;;9.00;99.90;;;;;;5060730;28;20667;-84
2021/04/29 02:47:03;;;;;;;24.47;13.67;;;9.00;99.90;;;;;;5059927;28;20231;-85
2021/04/29 02:49:29;;;;;;;24.20;13.57;;;9.00;99.90;;;;;;5064930;28;20211;-84
2021/04/29 02:51:56;;;;;;;23.20;13.93;;;9.00;99.90;;;;;;5057641;28;20285;-85
2021/04/29 02:54:27;;;;;;;25.33;13.93;;;8.90;99.90;;;;;;5055954;28;20209;-85
2021/04/29 02:56:54;;;;;;;22.17;13.23;;;8.90;99.90;;;;;;5056783;28;20246;-84
2021/04/29 02:59:20;;;;;;;20.50;13.27;;;8.90;99.90;;;;;;5055903;28;20687;-84
2021/04/29 03:01:47;;;;;;;22.90;13.47;;;8.90;99.90;;;;;;5060566;28;20199;-84
2021/04/29 03:04:13;;;;;;;22.63;13.33;;;8.90;99.90;;;;;;5063700;28;20218;-84
2021/04/29 03:06:40;;;;;;;22.17;13.40;;;8.90;99.90;;;;;;5066755;28;20225;-84
2021/04/29 03:09:07;;;;;;;24.67;13.57;;;8.90;99.90;;;;;;5063734;28;20278;-84
2021/04/29 03:11:35;;;;;;;23.40;13.13;;;8.80;99.90;;;;;;5065194;28;20237;-85
2021/04/29 03:14:02;;;;;;;21.97;12.50;;;8.80;99.90;;;;;;5066040;28;20213;-85
2021/04/29 03:16:29;;;;;;;20.77;12.80;;;8.80;99.90;;;;;;5066708;28;20618;-84
2021/04/29 03:18:55;;;;;;;20.70;12.97;;;8.80;99.90;;;;;;5067195;28;20665;-85
2021/04/29 03:21:22;;;;;;;22.40;13.13;;;8.80;99.90;;;;;;5068164;28;20237;-85
2021/04/29 03:23:48;;;;;;;22.43;12.57;;;8.80;99.90;;;;;;5062187;28;20230;-85
2021/04/29 03:26:15;;;;;;;23.70;13.60;;;8.70;99.90;;;;;;5062292;28;20280;-85
2021/04/29 03:28:42;;;;;;;20.77;12.73;;;8.70;99.90;;;;;;5052863;28;20196;-84
2021/04/29 03:31:09;;;;;;;20.40;12.43;;;8.70;99.90;;;;;;5056696;28;20206;-84
2021/04/29 03:33:35;;;;;;;20.43;11.90;;;8.70;99.90;;;;;;5057865;28;20214;-84
2021/04/29 03:36:02;;;;;;;20.10;12.27;;;8.60;99.90;;;;;;5061300;28;20230;-84
2021/04/29 03:38:28;;;;;;;20.67;12.13;;;8.60;99.90;;;;;;5060676;28;20255;-85
2021/04/29 03:40:55;;;;;;;22.70;12.47;;;8.60;99.90;;;;;;5061014;28;20203;-85
2021/04/29 03:43:21;;;;;;;22.77;12.47;;;8.50;99.90;;;;;;5059777;28;20207;-85
2021/04/29 03:45:49;;;;;;;20.57;11.33;;;8.50;99.90;;;;;;5062644;28;20234;-84
2021/04/29 03:48:15;;;;;;;22.27;11.97;;;8.40;99.90;;;;;;5057650;28;20206;-84
2021/04/29 03:50:42;;;;;;;17.50;11.20;;;8.40;99.90;;;;;;5055451;28;20210;-84
2021/04/29 03:53:08;;;;;;;16.87;10.57;;;8.40;99.90;;;;;;5053947;28;21141;-84
2021/04/29 03:55:35;;;;;;;17.73;10.83;;;8.30;99.90;;;;;;5056986;28;20229;-84
2021/04/29 03:58:02;;;;;;;20.53;10.77;;;8.30;99.90;;;;;;5055300;28;20247;-84
2021/04/29 04:00:28;;;;;;;16.70;9.67;;;8.20;99.90;;;;;;5058843;28;20199;-84
2021/04/29 04:02:55;;;;;;;15.20;9.13;;;8.10;99.90;;;;;;5063093;28;20221;-84
2021/04/29 04:05:22;;;;;;;20.27;9.73;;;8.00;99.90;;;;;;5076233;28;20215;-84
2021/04/29 04:07:48;;;;;;;19.17;10.07;;;8.00;99.90;;;;;;5081686;28;20229;-84
2021/04/29 04:10:15;;;;;;;18.23;10.03;;;8.00;99.90;;;;;;5069682;28;20253;-84
2021/04/29 04:12:41;;;;;;;18.73;9.63;;;8.00;99.90;;;;;;5060318;28;20199;-84
2021/04/29 04:15:09;;;;;;;18.00;9.97;;;7.90;99.90;;;;;;5058099;28;20246;-84
2021/04/29 04:17:36;;;;;;;16.37;10.03;;;7.90;99.90;;;;;;5057812;28;20239;-84
2021/04/29 04:20:04;;;;;;;16.50;9.53;;;7.80;99.90;;;;;;5058523;28;20222;-84
2021/04/29 04:22:31;;;;;;;19.83;10.17;;;7.80;99.90;;;;;;5057765;28;20207;-84
2021/04/29 04:24:57;;;;;;;15.73;9.40;;;7.70;99.90;;;;;;5056571;28;20590;-84
2021/04/29 04:27:23;;;;;;;19.67;11.03;;;7.70;99.90;;;;;;5058630;28;20230;-83
2021/04/29 04:29:50;;;;;;;16.30;10.07;;;7.80;99.90;;;;;;5060379;28;20218;-84
2021/04/29 04:32:16;;;;;;;17.27;9.67;;;7.80;99.90;;;;;;5058444;28;20214;-83
2021/04/29 04:34:43;;;;;;;17.20;9.90;;;7.80;99.90;;;;;;5059207;28;20210;-84
2021/04/29 04:37:10;;;;;;;18.93;10.23;;;7.80;99.90;;;;;;5059511;28;20218;-84
2021/04/29 04:39:37;;;;;;;18.83;9.43;;;7.90;99.90;;;;;;5055252;28;20234;-85
2021/04/29 04:42:04;;;;;;;16.57;9.53;;;8.00;99.90;;;;;;5061915;28;21137;-85
2021/04/29 04:44:30;;;;;;;17.97;10.10;;;8.10;99.90;;;;;;5058697;28;20199;-85
2021/04/29 04:46:57;;;;;;;17.20;10.30;;;8.40;99.90;;;;;;5054859;28;20250;-84
2021/04/29 04:49:23;;;;;;;18.20;9.53;;;8.60;99.90;;;;;;5062270;28;20222;-84
2021/04/29 04:51:50;;;;;;;17.67;9.80;;;8.80;99.90;;;;;;5058829;28;20293;-84
2021/04/29 04:54:19;;;;;;;16.87;9.27;;;8.90;99.90;;;;;;5056876;28;20246;-84
2021/04/29 04:56:46;;;;;;;13.57;8.70;;;9.00;99.90;;;;;;5058693;28;20341;-84
2021/04/29 04:59:13;;;;;;;13.80;8.87;;;8.80;99.90;;;;;;5056510;28;21102;-85
2021/04/29 05:01:40;;;;;;;15.37;8.97;;;8.80;99.90;;;;;;5058532;28;20214;-84
2021/04/29 05:04:07;;;;;;;12.73;8.60;;;8.70;99.90;;;;;;5055320;28;20210;-85
2021/04/29 05:06:35;;;;;;;17.60;9.07;;;8.70;99.90;;;;;;5052847;28;20219;-84
2021/04/29 05:09:04;;;;;;;16.93;8.97;;;8.70;99.90;;;;;;5051504;28;20206;-85
2021/04/29 05:11:31;;;;;;;16.90;8.57;;;8.80;99.90;;;;;;5051235;28;20206;-85
2021/04/29 05:13:58;;;;;;;17.13;8.47;;;8.80;99.90;;;;;;5051152;28;20253;-85
2021/04/29 05:16:25;;;;;;;14.47;9.10;;;8.90;99.90;;;;;;5051468;28;20653;-85
2021/04/29 05:18:51;;;;;;;15.53;9.17;;;8.90;99.90;;;;;;5050330;28;20238;-85
2021/04/29 05:21:18;;;;;;;15.43;9.37;;;9.00;99.90;;;;;;5050457;28;20229;-84
2021/04/29 05:23:46;;;;;;;15.97;9.40;;;9.00;99.90;;;;;;5051343;28;20748;-86
2021/04/29 05:26:13;;;;;;;15.70;9.27;;;9.00;99.90;;;;;;5051789;28;20234;-85
2021/04/29 05:28:40;;;;;;;18.77;9.97;;;9.00;99.90;;;;;;5052397;28;20203;-84
2021/04/29 05:31:07;;;;;;;18.40;9.07;;;8.90;99.90;;;;;;5057089;28;20539;-84
2021/04/29 05:33:34;;;;;;;18.47;10.40;;;8.90;99.90;;;;;;5049889;28;20508;-85
2021/04/29 05:36:03;;;;;;;16.23;9.97;;;8.90;99.90;;;;;;5070308;28;20198;-83
2021/04/29 05:38:29;;;;;;;21.63;9.87;;;8.90;99.90;;;;;;5075641;28;20225;-83
2021/04/29 05:40:57;;;;;;;17.33;10.30;;;8.90;99.90;;;;;;5070952;28;20309;-84
2021/04/29 05:43:24;;;;;;;19.67;10.37;;;8.90;99.90;;;;;;5052265;28;20683;-84
2021/04/29 05:45:51;;;;;;;17.57;10.37;;;8.80;99.90;;;;;;5049973;28;20243;-84
2021/04/29 05:48:18;;;;;;;18.87;9.87;;;8.90;99.90;;;;;;5049792;28;20195;-84
2021/04/29 05:50:47;;;;;;;19.50;10.13;;;8.90;99.90;;;;;;5050724;28;20222;-84
2021/04/29 05:53:14;;;;;;;23.17;12.43;;;8.80;99.90;;;;;;5051065;28;20206;-84
2021/04/29 05:55:40;;;;;;;18.40;9.97;;;8.90;99.90;;;;;;5054583;28;20226;-84
2021/04/29 05:58:06;;;;;;;17.33;9.53;;;8.90;99.90;;;;;;5054537;28;20263;-84
2021/04/29 06:00:34;;;;;;;21.33;10.83;;;9.00;99.90;;;;;;5054995;28;20399;-85
2021/04/29 06:03:02;;;;;;;18.23;10.73;;;9.00;99.90;;;;;;5054086;28;20211;-85
2021/04/29 06:05:29;;;;;;;17.93;9.93;;;9.00;99.90;;;;;;5056514;28;20640;-85
2021/04/29 06:07:56;;;;;;;17.40;10.30;;;9.10;99.90;;;;;;5057723;28;20207;-85
2021/04/29 06:10:23;;;;;;;22.97;11.80;;;9.10;99.90;;;;;;5052094;28;20736;-85
2021/04/29 06:12:49;;;;;;;21.60;12.43;;;9.10;99.90;;;;;;5052940;28;20207;-85
2021/04/29 06:15:17;;;;;;;27.53;13.80;;;9.20;99.90;;;;;;5050412;28;20602;-85
2021/04/29 06:17:43;;;;;;;21.87;12.17;;;9.20;99.90;;;;;;5050415;28;20278;-85
2021/04/29 06:20:12;;;;;;;23.77;12.50;;;9.30;99.90;;;;;;5052981;28;20587;-85
2021/04/29 06:22:39;;;;;;;19.83;11.23;;;9.30;99.90;;;;;;5052517;28;20203;-86
2021/04/29 06:25:07;;;;;;;19.07;11.40;;;9.40;99.90;;;;;;5054343;28;20229;-86
2021/04/29 06:27:34;;;;;;;22.80;11.47;;;9.50;99.90;;;;;;5053748;28;20238;-85
2021/04/29 06:30:01;;;;;;;19.83;12.23;;;9.50;99.90;;;;;;5058114;28;20202;-85
2021/04/29 06:32:27;;;;;;;18.83;11.67;;;9.60;99.90;;;;;;5054923;28;20584;-85
2021/04/29 06:34:54;;;;;;;24.80;12.13;;;9.60;99.90;;;;;;5056588;28;20207;-84
2021/04/29 06:37:21;;;;;;;18.17;11.80;;;9.70;99.90;;;;;;5053488;28;20206;-84
2021/04/29 06:39:49;;;;;;;20.97;11.97;;;9.90;99.90;;;;;;5053202;28;20215;-84
2021/04/29 06:42:16;;;;;;;23.50;12.83;;;10.00;99.90;;;;;;5063889;28;20209;-84
2021/04/29 06:44:43;;;;;;;16.93;11.07;;;10.20;99.90;;;;;;5059138;28;20210;-84
2021/04/29 06:47:10;;;;;;;21.37;11.13;;;10.30;99.90;;;;;;5056369;28;20302;-84
2021/04/29 06:49:37;;;;;;;17.67;9.30;;;10.30;99.90;;;;;;5057016;28;20210;-84
2021/04/29 06:52:04;;;;;;;15.20;8.57;;;10.50;99.90;;;;;;5058000;28;20706;-84
2021/04/29 06:54:31;;;;;;;16.80;9.03;;;10.60;99.90;;;;;;5058358;28;20223;-84
2021/04/29 06:56:59;;;;;;;14.17;8.60;;;10.80;99.90;;;;;;5056694;28;20280;-84
2021/04/29 06:59:27;;;;;;;15.67;8.13;;;11.00;99.90;;;;;;5057400;28;20373;-84
2021/04/29 07:01:54;;;;;;;15.93;8.10;;;11.30;99.90;;;;;;5058271;28;20221;-85
2021/04/29 07:04:21;;;;;;;14.77;7.57;;;11.60;99.90;;;;;;5057060;28;20214;-85
2021/04/29 07:06:48;;;;;;;14.20;8.03;;;11.90;99.90;;;;;;5061977;28;20364;-84
2021/04/29 07:09:15;;;;;;;12.03;7.60;;;12.40;99.90;;;;;;5057182;28;20237;-85
2021/04/29 07:11:44;;;;;;;13.53;6.97;;;12.60;99.90;;;;;;5060097;28;20207;-84
2021/04/29 07:14:10;;;;;;;13.50;6.90;;;12.90;99.90;;;;;;5065354;28;20210;-84
2021/04/29 07:16:37;;;;;;;11.60;6.70;;;13.20;99.90;;;;;;5079169;28;20304;-84
2021/04/29 07:19:03;;;;;;;14.20;6.07;;;13.60;99.90;;;;;;5078305;28;20244;-84
2021/04/29 07:21:30;;;;;;;10.93;6.17;;;14.20;99.90;;;;;;5062557;28;20199;-85
2021/04/29 07:23:56;;;;;;;11.93;6.93;;;15.10;99.90;;;;;;5055114;28;20294;-84
2021/04/29 07:26:25;;;;;;;11.20;5.90;;;15.20;99.90;;;;;;5054101;28;20361;-85
2021/04/29 07:28:53;;;;;;;10.83;6.50;;;14.80;99.90;;;;;;5055185;28;20199;-84
2021/04/29 07:31:22;;;;;;;14.60;6.73;;;14.50;99.90;;;;;;5058525;28;20210;-85
2021/04/29 07:33:48;;;;;;;14.43;7.23;;;14.20;99.90;;;;;;5052641;28;20191;-85
2021/04/29 07:36:15;;;;;;;11.00;6.93;;;14.20;99.90;;;;;;5052684;28;20228;-85
2021/04/29 07:38:42;;;;;;;13.83;7.40;;;14.20;99.90;;;;;;5048813;28;20219;-85
2021/04/29 07:41:08;;;;;;;15.13;8.17;;;14.90;99.90;;;;;;5049992;28;20223;-85
2021/04/29 07:43:35;;;;;;;13.80;7.90;;;15.70;99.90;;;;;;5052197;28;20302;-85
2021/04/29 07:46:03;;;;;;;16.00;9.13;;;16.20;99.90;;;;;;5051066;28;20625;-85
2021/04/29 07:48:29;;;;;;;14.20;8.63;;;17.30;99.90;;;;;;5054276;28;20840;-85
2021/04/29 07:50:56;;;;;;;18.63;10.50;;;17.70;99.90;;;;;;5053288;28;21009;-85
2021/04/29 07:53:25;;;;;;;18.37;10.67;;;17.30;99.90;;;;;;5055224;28;20290;-85
2021/04/29 07:55:51;;;;;;;17.00;10.50;;;16.50;99.90;;;;;;5050254;28;20566;-86
2021/04/29 07:58:18;;;;;;;19.73;11.27;;;17.40;99.90;;;;;;5052867;28;20341;-85
2021/04/29 08:00:46;;;;;;;17.70;10.57;;;18.60;99.90;;;;;;5049135;28;20210;-84
2021/04/29 08:03:14;;;;;;;17.03;10.17;;;18.00;99.90;;;;;;5053332;28;20199;-85
2021/04/29 08:05:40;;;;;;;14.40;9.67;;;17.50;99.90;;;;;;5052174;28;20321;-85
2021/04/29 08:08:08;;;;;;;13.80;9.43;;;17.90;99.90;;;;;;5052989;28;20222;-85
2021/04/29 08:10:35;;;;;;;15.47;9.13;;;18.90;99.90;;;;;;5049864;28;20215;-85
2021/04/29 08:13:02;;;;;;;14.40;9.10;;;20.00;99.90;;;;;;5051953;28;20218;-85
2021/04/29 08:15:29;;;;;;;17.07;9.23;;;19.90;99.90;;;;;;5050167;28;20605;-85
2021/04/29 08:17:56;;;;;;;13.13;8.40;;;19.20;99.90;;;;;;5049762;28;20206;-84
2021/04/29 08:20:23;;;;;;;12.03;8.50;;;18.80;99.90;;;;;;5050941;28;20902;-85
2021/04/29 08:22:50;;;;;;;14.17;8.63;;;19.50;99.90;;;;;;5043556;28;20199;-85
2021/04/29 08:25:16;;;;;;;12.13;7.70;;;20.60;99.90;;;;;;5043061;28;20321;-84
2021/04/29 08:27:42;;;;;;;11.63;7.67;;;21.50;99.90;;;;;;5047494;28;20200;-85
2021/04/29 08:30:10;;;;;;;16.87;8.07;;;22.00;99.90;;;;;;5050964;28;20752;-85
2021/04/29 08:32:42;;;;;;;14.93;8.10;;;22.80;99.90;;;;;;5050910;28;20726;-85
2021/04/29 08:35:09;;;;;;;10.30;6.50;;;22.40;99.90;;;;;;5050662;28;20269;-85
2021/04/29 08:37:37;;;;;;;11.43;6.53;;;22.00;99.90;;;;;;5049700;28;20238;-85
2021/04/29 08:40:04;;;;;;;8.33;5.40;;;21.90;99.90;;;;;;5050770;28;20222;-85
2021/04/29 08:42:30;;;;;;;9.90;5.50;;;20.70;99.90;;;;;;5048192;28;20230;-85
2021/04/29 08:44:57;;;;;;;10.30;5.10;;;19.40;99.90;;;;;;5049344;28;20203;-84
2021/04/29 08:47:24;;;;;;;7.23;4.50;;;18.90;99.90;;;;;;5051642;28;20203;-85
2021/04/29 08:49:52;;;;;;;9.47;4.40;;;20.10;99.90;;;;;;5052038;28;20215;-85
2021/04/29 08:52:19;;;;;;;6.77;3.90;;;21.80;99.90;;;;;;5068018;28;20191;-84
2021/04/29 08:54:48;;;;;;;8.83;3.80;;;21.50;99.90;;;;;;5075360;28;20245;-85
2021/04/29 08:57:15;;;;;;;6.33;4.37;;;20.70;99.90;;;;;;5068295;28;20203;-85
2021/04/29 08:59:42;;;;;;;7.20;3.70;;;21.00;99.90;;;;;;5051798;28;20215;-85
2021/04/29 09:02:08;;;;;;;8.80;3.93;;;20.60;99.90;;;;;;5048550;28;20237;-85
2021/04/29 09:04:40;;;;;;;7.07;3.80;;;19.70;99.90;;;;;;5046560;28;20203;-85
2021/04/29 09:07:14;;;;;;;6.97;3.70;;;18.50;99.90;;;;;;5050675;28;20227;-85
2021/04/29 09:09:42;;;;;;;8.27;3.97;;;17.80;99.90;;;;;;5049347;28;20655;-85
2021/04/29 09:12:13;;;;;;;8.17;3.70;;;17.40;99.90;;;;;;5048507;28;20246;-85
2021/04/29 09:14:41;;;;;;;9.87;3.57;;;17.50;99.90;;;;;;5053669;28;20634;-85
2021/04/29 09:17:08;;;;;;;5.17;3.43;;;17.10;99.90;;;;;;5047248;28;20250;-85
2021/04/29 09:19:36;;;;;;;8.53;3.70;;;17.40;99.90;;;;;;5050101;28;20304;-85
2021/04/29 09:22:04;;;;;;;8.40;3.47;;;17.60;99.90;;;;;;5050637;28;20221;-85
2021/04/29 09:24:34;;;;;;;5.67;2.83;;;17.60;99.90;;;;;;5048712;28;20265;-85
2021/04/29 09:27:16;;;;;;;7.30;3.50;;;17.40;99.90;;;;;;5050462;28;20319;-84
2021/04/29 09:29:54;;;;;;;8.13;3.07;;;17.20;99.90;;;;;;5051845;28;20647;-85
2021/04/29 09:32:25;;;;;;;8.17;2.60;;;16.90;99.90;;;;;;5053002;28;20612;-84
2021/04/29 09:34:51;;;;;;;6.17;2.60;;;16.80;99.90;;;;;;5057302;28;20203;-85
2021/04/29 09:37:29;;;;;;;10.00;2.33;;;16.80;99.90;;;;;;5052331;28;20211;-85
2021/04/29 09:39:56;;;;;;;6.73;2.43;;;16.90;99.90;;;;;;5054634;28;20364;-85
2021/04/29 09:42:31;;;;;;;3.87;2.00;;;16.40;99.90;;;;;;5050968;28;20286;-85
2021/04/29 09:45:03;;;;;;;5.17;2.03;;;16.10;99.90;;;;;;5054943;28;20918;-84
2021/04/29 09:47:29;;;;;;;4.87;1.90;;;16.00;99.90;;;;;;5055905;28;20228;-84
2021/04/29 09:49:56;;;;;;;3.83;2.00;;;16.40;99.90;;;;;;5052017;28;20571;-85
2021/04/29 09:52:24;;;;;;;8.27;1.80;;;16.70;99.90;;;;;;5053044;28;20203;-84
2021/04/29 09:54:52;;;;;;;3.60;1.60;;;16.20;99.90;;;;;;5056934;28;20639;-85
2021/04/29 09:57:24;;;;;;;4.83;1.53;;;16.20;99.90;;;;;;5054086;28;20206;-84
2021/04/29 09:59:57;;;;;;;3.67;1.80;;;16.10;99.90;;;;;;5053734;28;20590;-85
2021/04/29 10:02:24;;;;;;;4.00;2.10;;;15.80;99.90;;;;;;5054617;28;20245;-84
2021/04/29 10:04:51;;;;;;;10.23;2.10;;;15.40;99.90;;;;;;5052180;28;20219;-84
2021/04/29 10:07:19;;;;;;;4.50;1.97;;;15.00;99.90;;;;;;5054592;28;20245;-84
2021/04/29 10:09:47;;;;;;;2.47;1.47;;;14.70;99.90;;;;;;5055338;28;20344;-85
2021/04/29 10:12:16;;;;;;;4.10;1.80;;;14.60;99.90;;;;;;5053399;28;20667;-85
2021/04/29 10:14:43;;;;;;;3.20;1.87;;;14.90;99.90;;;;;;5051514;28;20682;-85
2021/04/29 10:17:12;;;;;;;3.20;1.97;;;15.40;99.90;;;;;;5049552;28;20219;-85
2021/04/29 10:19:42;;;;;;;4.10;2.03;;;15.60;99.90;;;;;;5052909;28;20215;-84
2021/04/29 10:22:09;;;;;;;5.20;2.10;;;15.60;99.90;;;;;;5053460;28;20215;-84
2021/04/29 10:24:38;;;;;;;4.87;1.80;;;15.80;99.90;;;;;;5054077;28;20209;-85
2021/04/29 10:27:07;;;;;;;6.17;1.90;;;15.80;99.90;;;;;;5053468;28;20290;-84
2021/04/29 10:29:34;;;;;;;3.53;1.53;;;15.80;99.90;;;;;;5072447;28;20210;-85
2021/04/29 10:32:02;;;;;;;7.07;1.60;;;16.10;99.90;;;;;;5078979;28;20225;-86
2021/04/29 10:34:39;;;;;;;6.00;1.70;;;16.30;99.90;;;;;;5078867;28;20194;-85
2021/04/29 10:37:19;;;;;;;4.53;1.93;;;16.60;99.90;;;;;;5057181;28;20233;-85
2021/04/29 10:39:53;;;;;;;4.87;2.00;;;16.70;99.90;;;;;;5055712;28;20710;-84
2021/04/29 10:42:20;;;;;;;3.57;1.63;;;16.90;99.90;;;;;;5050865;28;20202;-84
2021/04/29 10:44:48;;;;;;;4.50;1.80;;;17.00;99.90;;;;;;5054667;28;20256;-84
2021/04/29 10:47:26;;;;;;;8.30;1.80;;;16.50;99.90;;;;;;5055545;28;20211;-84
2021/04/29 10:50:07;;;;;;;5.50;1.97;;;16.30;99.90;;;;;;5037297;28;20256;-85
2021/04/29 10:52:47;;;;;;;4.23;1.90;;;15.90;99.90;;;;;;5049950;28;20203;-84
2021/04/29 10:55:23;;;;;;;5.10;2.00;;;15.40;99.90;;;;;;5054242;28;20494;-85
2021/04/29 10:57:50;;;;;;;5.00;2.63;;;14.50;99.90;;;;;;5051504;28;20203;-84
2021/04/29 11:00:17;;;;;;;8.83;2.50;;;13.80;99.90;;;;;;5055473;28;20219;-84
2021/04/29 11:02:45;;;;;;;4.00;2.50;;;13.10;99.90;;;;;;5052319;28;20195;-84
2021/04/29 11:05:23;;;;;;;4.70;2.10;;;12.70;99.90;;;;;;5052406;28;20233;-85
2021/04/29 11:07:50;;;;;;;3.97;2.27;;;12.20;99.90;;;;;;5048507;28;20255;-85
2021/04/29 11:10:19;;;;;;;7.23;2.70;;;11.90;99.90;;;;;;5055610;28;20746;-84
2021/04/29 11:12:48;;;;;;;5.97;2.30;;;12.10;99.90;;;;;;5055082;28;20648;-85
2021/04/29 11:15:26;;;;;;;5.03;2.93;;;12.60;99.90;;;;;;5055625;28;20306;-84
2021/04/29 11:18:07;;;;;;;7.97;3.40;;;13.00;99.90;;;;;;5053926;28;20203;-84
2021/04/29 11:20:46;;;;;;;7.37;3.37;;;13.50;99.90;;;;;;5053008;28;20302;-84
2021/04/29 11:23:14;;;;;;;9.27;3.00;;;13.80;99.90;;;;;;5051551;28;20466;-84
2021/04/29 11:25:43;;;;;;;6.13;3.20;;;14.00;99.90;;;;;;5053621;28;20258;-84
2021/04/29 11:28:10;;;;;;;5.20;3.20;;;14.10;99.90;;;;;;5052335;28;20341;-84
2021/04/29 11:30:39;;;;;;;8.53;3.50;;;14.10;99.90;;;;;;5052795;28;20665;-84
2021/04/29 11:33:08;;;;;;;4.40;3.03;;;14.10;99.90;;;;;;5047728;28;20207;-84
2021/04/29 11:35:36;;;;;;;5.03;3.00;;;14.20;99.90;;;;;;5049975;28;20231;-84
2021/04/29 11:38:06;;;;;;;5.60;2.97;;;14.30;99.90;;;;;;5051392;28;20222;-84
2021/04/29 11:40:34;;;;;;;8.43;3.33;;;14.40;99.90;;;;;;5045385;28;20640;-84
2021/04/29 11:43:05;;;;;;;8.70;3.00;;;14.40;99.90;;;;;;5050797;28;20239;-84
2021/04/29 11:45:33;;;;;;;9.53;3.23;;;14.40;99.90;;;;;;5053694;28;20263;-84
2021/04/29 11:48:02;;;;;;;3.27;2.10;;;14.70;99.90;;;;;;5055643;28;20253;-84
2021/04/29 11:50:30;;;;;;;4.50;2.00;;;14.90;99.90;;;;;;5049683;28;23242;-83
2021/04/29 11:53:19;;;;;;;2.57;1.77;;;14.90;99.90;;;;;;5049983;28;20203;-84
2021/04/29 11:55:49;;;;;;;2.93;1.30;;;15.00;99.90;;;;;;5047413;28;20719;-84
2021/04/29 11:58:18;;;;;;;1.87;1.00;;;15.10;99.90;;;;;;5051424;28;20211;-84
2021/04/29 12:00:47;;;;;;;1.63;1.00;;;15.30;99.90;;;;;;5053533;28;20250;-83
2021/04/29 12:03:14;;;;;;;3.93;0.80;;;15.30;99.90;;;;;;5062571;28;20219;-83
2021/04/29 12:05:42;;;;;;;2.23;1.10;;;15.30;99.90;;;;;;5079115;28;20238;-83
2021/04/29 12:08:15;;;;;;;2.30;1.03;;;15.20;99.90;;;;;;5077434;28;20209;-82
2021/04/29 12:10:44;;;;;;;2.20;1.10;;;15.20;99.90;;;;;;5057886;28;20201;-84
2021/04/29 12:13:11;;;;;;;1.27;0.83;;;15.30;99.90;;;;;;5056952;28;20203;-84
2021/04/29 12:15:38;;;;;;;1.57;0.83;;;15.40;99.90;;;;;;5055648;28;20703;-85
2021/04/29 12:18:05;;;;;;;2.90;0.87;;;15.40;99.90;;;;;;5054402;28;20206;-84
2021/04/29 12:20:32;;;;;;;2.33;1.07;;;15.70;99.90;;;;;;5055045;28;20227;-84
2021/04/29 12:22:59;;;;;;;3.73;1.20;;;15.80;99.90;;;;;;5053965;28;20272;-85
2021/04/29 12:25:25;;;;;;;3.77;1.40;;;16.00;99.90;;;;;;5055228;28;20296;-84
2021/04/29 12:27:53;;;;;;;3.73;1.20;;;16.00;99.90;;;;;;5051339;28;20211;-85
2021/04/29 12:30:26;;;;;;;2.13;1.10;;;16.20;99.90;;;;;;5051140;28;20238;-84
2021/04/29 12:32:53;;;;;;;2.60;1.27;;;16.30;99.90;;;;;;5048266;28;20280;-84
2021/04/29 12:35:28;;;;;;;2.90;1.40;;;16.50;99.90;;;;;;5049813;28;20231;-84
2021/04/29 12:37:56;;;;;;;2.60;1.63;;;16.40;99.90;;;;;;5049136;28;20386;-84
2021/04/29 12:40:28;;;;;;;1.70;1.17;;;16.30;99.90;;;;;;5050136;28;20219;-84
2021/04/29 12:43:17;;;;;;;2.40;1.80;;;16.20;99.90;;;;;;5050425;28;20203;-85
2021/04/29 12:45:50;;;;;;;5.20;3.20;;;15.90;99.90;;;;;;5048326;28;20258;-85